Date,TemperatureHighF,TemperatureAvgF,TemperatureLowF,DewpointHighF,DewpointAvgF,DewpointLowF,HumidityHigh,HumidityAvg,HumidityLow,PressureMaxIn,PressureMinIn,WindSpeedMaxMPH,WindSpeedAvgMPH,GustSpeedMaxMPH,PrecipitationSumIn
2013-1-1,46.0,40.8,35.2,34.0,29.8,20.2,81,65,48,29.98,29.84,11,1,11,0.00
2013-1-2,40.9,34.9,27.8,31.3,26.1,18.1,88,71,43,30.17,29.92,8,0,8,0.00
2013-1-3,41.8,30.2,21.4,22.6,17.7,10.3,87,63,31,30.20,30.09,9,1,9,0.00
2013-1-4,43.2,32.4,23.3,20.6,17.7,15.8,75,56,36,30.21,30.09,15,2,15,0.00
2013-1-5,48.5,36.0,25.0,28.8,18.7,15.0,72,51,27,30.34,30.11,11,1,11,0.00
2013-1-6,45.5,39.9,29.7,30.0,26.8,23.6,81,60,47,30.12,29.99,14,2,14,0.01
2013-1-7,45.7,38.2,23.5,28.5,24.7,20.0,87,59,44,30.41,30.10,13,2,13,0.00
2013-1-8,54.1,35.7,21.0,29.7,23.7,18.0,93,67,25,30.40,30.28,15,1,15,0.01
2013-1-9,61.6,43.1,26.1,45.8,34.3,22.8,91,73,41,30.37,30.24,16,1,16,0.00
2013-1-10,57.3,41.9,30.3,33.1,28.1,19.3,77,60,32,30.55,30.36,9,0,9,0.00
2013-1-11,47.0,43.1,34.4,45.1,36.1,27.0,94,77,54,30.40,30.04,20,1,20,0.00
2013-1-12,71.8,52.4,38.8,57.0,47.5,38.0,99,85,55,30.11,30.00,10,0,10,0.01
2013-1-13,68.4,54.5,43.6,58.5,50.5,42.8,99,87,63,30.02,29.91,14,1,14,0.00
2013-1-14,62.6,54.7,39.3,58.0,47.8,37.7,98,78,64,30.24,29.89,11,1,11,0.19
2013-1-15,39.3,37.3,35.0,38.3,36.3,34.2,97,96,94,30.29,30.08,8,0,8,0.96
2013-1-16,49.9,40.1,34.9,44.8,38.0,34.1,98,93,75,30.08,29.79,19,1,19,0.22
2013-1-17,47.0,40.6,34.0,39.9,34.4,26.3,95,80,52,30.08,29.92,9,1,9,0.03
2013-1-18,42.8,34.8,29.5,31.4,17.8,7.5,92,52,25,30.44,30.08,16,2,16,0.00
2013-1-19,52.2,40.8,29.3,26.5,22.3,18.8,66,49,29,30.38,29.96,21,4,21,0.00
2013-1-20,54.1,45.1,29.3,29.3,18.5,0.9,58,37,17,30.02,29.83,23,5,23,0.00
2013-1-21,47.9,34.5,23.0,19.7,11.6,2.2,73,41,21,30.02,29.78,22,4,32,0.00
2013-1-22,27.2,19.1,10.5,4.3,-5.7,-11.9,60,33,22,30.25,29.90,21,4,21,0.00
2013-1-23,30.1,15.3,6.3,3.4,-1.2,-6.8,77,53,20,30.32,30.13,18,2,18,0.00
2013-1-24,13.5,11.9,10.5,2.9,2.5,2.0,69,65,60,30.52,30.50,4,0,5,0.01
2013-1-25,23.5,15.5,9.7,14.4,6.5,1.8,78,68,40,30.51,30.10,19,1,19,0.00
2013-1-26,38.6,21.7,15.4,22.4,16.6,12.5,89,81,46,30.18,29.99,12,0,12,0.00
2013-1-28,54.4,46.7,33.7,47.2,39.0,30.9,90,75,62,30.31,30.05,18,4,18,0.10
2013-1-29,74.2,59.4,45.4,54.0,49.5,43.2,95,72,46,30.07,29.89,14,2,14,0.00
2013-1-30,69.4,59.9,47.1,60.2,54.8,43.4,98,84,69,29.89,29.21,28,4,28,1.51
2013-1-31,54.2,38.4,30.3,51.9,24.0,10.0,92,57,36,29.87,29.16,27,6,27,0.25
2013-2-1,32.1,24.9,14.4,26.4,9.1,-3.8,88,52,29,30.35,29.74,22,5,27,0.00
2013-2-2,32.7,22.7,12.6,24.2,11.5,0.9,86,64,32,30.35,29.95,21,2,21,0.00
2013-2-3,36.8,30.3,23.6,25.5,20.5,13.2,90,69,46,29.95,29.78,21,3,21,0.01
2013-2-4,38.3,36.9,35.8,29.8,25.1,20.6,78,63,51,29.87,29.85,15,4,15,0.00
2013-2-5,49.8,39.5,29.7,33.3,29.1,24.1,87,67,51,29.87,29.78,21,2,21,0.00
2013-2-6,49.5,37.8,27.0,31.1,25.3,20.0,92,63,33,30.29,29.87,13,1,13,0.00
2013-2-7,38.9,33.4,25.4,27.0,24.4,20.9,87,70,58,30.36,30.10,10,1,10,0.00
2013-2-8,46.8,36.2,31.5,39.2,29.4,18.8,95,78,51,30.11,29.73,25,2,25,0.09
2013-2-9,46.7,33.1,23.3,19.2,13.8,7.4,69,47,20,30.35,29.97,19,2,19,0.00
2013-2-10,46.0,32.0,17.5,30.3,16.8,12.9,83,57,27,30.44,30.14,12,1,12,0.00
2013-2-11,61.5,50.3,34.9,48.6,36.2,14.4,91,64,20,30.15,29.71,23,4,23,0.01
2013-2-12,62.0,48.9,38.8,25.3,19.1,12.1,55,32,16,29.92,29.76,19,3,19,0.00
2013-2-13,45.4,36.6,31.3,34.0,27.7,21.4,97,72,43,29.87,29.60,8,0,8,0.04
2013-2-14,31.5,28.2,24.4,30.8,27.3,23.2,97,96,95,29.97,29.75,4,0,4,0.00
2013-2-15,55.0,42.6,33.2,37.0,33.6,30.6,93,74,40,29.98,29.84,18,2,18,0.01
2013-2-16,36.9,32.2,25.3,32.7,22.3,9.4,96,68,46,29.94,29.81,11,1,11,0.00
2013-2-17,26.6,21.9,14.9,15.4,2.6,-3.2,73,44,28,30.21,29.85,24,5,24,0.00
2013-2-18,48.0,29.1,11.4,21.6,11.5,3.4,78,51,27,30.35,30.08,16,1,16,0.00
2013-2-19,49.4,38.3,27.5,39.0,27.0,12.4,92,66,34,30.08,29.68,26,4,26,0.08
2013-2-20,39.8,32.2,24.4,14.2,10.8,8.0,57,41,27,30.12,29.83,22,4,22,0.00
2013-2-21,43.9,29.9,15.7,16.7,13.2,9.4,79,51,31,30.27,30.09,11,1,11,0.00
2013-2-22,36.2,31.8,27.6,27.4,22.7,15.2,83,69,54,30.30,30.12,11,1,11,0.01
2013-2-23,53.5,39.5,32.7,39.5,32.8,26.7,91,78,58,30.13,29.77,6,0,6,0.00
2013-2-24,52.6,40.6,31.2,39.8,26.5,17.3,98,64,26,30.06,29.76,15,2,15,0.00
2013-2-25,43.5,31.3,21.4,21.1,17.7,14.6,76,58,36,30.19,30.06,7,1,12,0.00
2013-2-26,37.8,31.6,24.8,37.3,27.9,17.9,98,86,72,30.16,29.59,11,1,11,0.66
2013-2-27,49.1,42.6,36.8,41.4,33.6,29.2,98,73,48,29.67,29.54,20,2,20,0.01
2013-2-28,42.2,37.9,31.0,31.3,24.6,20.3,80,59,45,29.73,29.59,20,3,20,0.00
2013-3-1,38.5,36.0,32.5,27.4,23.0,19.9,79,59,50,29.87,29.72,15,3,15,0.00
2013-3-2,35.9,31.7,29.0,23.5,18.1,14.9,68,57,46,29.86,29.79,15,2,18,0.00
2013-3-3,39.2,28.7,21.8,17.2,13.6,9.7,75,53,37,29.94,29.79,18,3,18,0.00
2013-3-4,48.6,30.8,16.5,15.2,8.9,2.7,77,44,16,30.03,29.93,16,2,16,0.00
2013-3-5,48.6,37.5,26.1,31.6,23.4,14.4,95,58,34,30.03,29.64,7,1,16,0.02
2013-3-6,32.7,31.6,30.7,31.7,30.5,29.7,97,96,95,29.65,29.58,0,0,0,0.01
2013-3-7,41.9,39.0,37.0,28.0,24.0,21.3,63,55,47,30.17,30.11,18,4,18,0.23
2013-3-8,45.2,37.4,28.2,26.5,23.5,19.0,81,57,44,30.31,30.14,18,3,19,0.00
2013-3-9,54.8,36.0,21.0,28.7,22.9,18.4,90,64,25,30.37,30.24,6,0,6,0.00
2013-3-10,62.6,42.5,26.0,31.9,25.4,21.1,83,57,27,30.28,30.12,11,1,11,0.00
2013-3-12,47.1,42.0,34.1,29.2,27.9,26.2,74,58,48,29.95,29.83,13,3,13,0.84
2013-3-13,45.4,35.5,28.1,28.6,20.9,12.0,90,59,27,30.08,29.89,27,4,27,0.00
2013-3-14,45.8,35.3,26.7,17.3,12.4,9.1,58,40,23,30.16,30.03,23,5,23,0.00
2013-3-15,59.8,42.6,22.2,32.9,23.7,11.6,78,49,33,30.08,29.76,18,3,18,0.00
2013-3-16,65.0,47.4,36.6,53.6,39.8,31.5,95,76,49,29.83,29.55,23,1,26,0.21
2013-3-17,42.9,36.0,31.9,39.0,34.8,30.6,98,95,86,30.20,29.80,8,0,8,0.06
2013-3-18,32.9,31.9,30.6,31.8,30.4,29.2,97,94,89,30.22,29.83,8,0,8,0.24
2013-3-19,56.0,43.4,32.1,39.0,23.9,0.5,98,58,13,29.93,29.71,23,5,38,0.21
2013-3-20,50.8,39.9,27.3,23.7,10.4,2.3,56,31,17,29.98,29.73,26,4,26,0.00
2013-3-21,38.0,29.6,24.1,27.3,10.8,1.3,84,47,29,29.92,29.72,20,4,20,0.00
2013-3-22,47.9,33.2,18.4,18.2,11.6,6.6,72,43,24,29.98,29.84,21,3,21,0.00
2013-3-23,57.0,36.9,21.6,21.6,15.8,9.0,78,48,16,30.01,29.84,14,1,14,0.00
2013-3-24,39.2,31.9,28.4,29.6,24.6,18.9,95,75,49,29.93,29.54,6,0,6,0.03
2013-3-25,40.8,32.9,25.0,34.4,29.1,23.8,96,86,60,29.70,29.49,11,0,12,0.45
2013-3-26,43.2,37.7,30.3,29.3,25.6,21.4,91,63,43,29.99,29.69,14,2,14,0.01
2013-3-27,37.2,36.8,35.9,25.2,24.2,22.3,64,60,56,30.14,30.13,8,0,8,0.00
2013-3-28,46.1,39.2,32.5,26.8,22.3,19.3,69,51,37,30.21,30.10,20,4,20,0.00
2013-3-30,57.6,52.8,50.5,30.9,27.0,24.2,43,37,28,30.17,30.08,13,4,14,0.00
2013-3-31,56.9,42.2,37.6,48.8,36.2,29.8,93,80,69,30.01,29.70,18,1,18,0.07
2013-4-1,54.8,42.3,32.9,42.0,36.0,30.6,95,79,58,29.78,29.74,19,1,19,0.00
2013-4-2,39.2,38.8,37.2,11.6,9.1,7.8,33,29,27,30.12,30.09,4,1,7,0.00
2013-4-3,51.9,37.7,22.7,19.6,12.4,3.5,79,41,14,30.32,30.14,19,3,20,0.00
2013-4-4,45.2,34.6,24.8,32.2,19.3,13.3,94,57,28,30.37,29.99,11,1,11,0.14
2013-4-5,64.0,45.7,33.5,43.3,32.6,23.4,97,68,24,30.01,29.79,14,1,14,0.24
2013-4-6,60.2,45.0,29.5,30.0,21.6,11.5,78,44,19,30.25,30.00,14,1,14,0.00
2013-4-7,46.7,44.3,40.3,30.0,27.7,24.7,58,52,45,30.17,30.12,8,1,8,0.00
2013-4-8,78.3,57.8,43.5,49.0,42.5,39.7,88,60,27,30.04,29.88,19,2,19,0.00
2013-4-9,83.2,70.4,51.1,53.5,49.7,46.0,84,50,31,30.05,29.88,18,3,18,0.00
2013-4-10,88.8,74.2,56.0,57.5,51.0,46.6,83,48,24,29.95,29.73,12,3,19,0.00
2013-4-11,84.9,72.3,54.4,57.8,52.7,38.7,86,53,22,29.80,29.63,19,2,19,0.00
2013-4-12,68.9,66.3,56.6,54.9,51.0,36.1,61,58,46,29.70,29.64,12,3,12,0.00
2013-4-13,57.3,56.1,55.9,36.0,35.9,35.3,47,46,46,29.72,29.70,16,8,19,0.00
2013-4-14,61.3,61.1,60.5,41.9,40.5,39.8,49,47,45,29.98,29.97,4,0,4,0.00
2013-4-15,61.5,52.8,50.5,52.0,48.5,39.7,97,86,48,30.12,29.97,7,0,7,0.07
2013-4-16,75.3,74.0,70.6,59.5,58.5,57.2,65,59,55,30.09,30.06,13,4,13,0.02
2013-4-18,68.3,67.0,66.0,56.5,54.3,53.4,66,64,62,29.93,29.88,8,2,8,0.01
2013-4-19,72.7,65.8,51.1,64.1,56.6,33.6,91,73,50,29.90,29.54,24,5,24,0.00
2013-4-20,59.5,49.5,38.6,34.8,25.4,19.6,68,40,22,30.28,29.72,22,4,22,0.00
2013-4-21,56.9,45.9,31.9,34.8,29.7,25.2,81,55,34,30.52,30.26,12,1,12,0.07
2013-4-22,60.2,44.3,31.5,35.7,30.4,25.0,89,62,27,30.49,30.29,4,1,8,0.00
2013-4-23,68.4,52.0,41.1,47.8,40.3,34.8,87,66,39,30.31,30.02,4,1,8,0.00
2013-4-24,76.8,60.1,40.6,57.6,48.0,39.3,97,68,36,30.05,29.75,9,3,25,0.04
2013-4-25,65.6,52.5,36.0,42.2,29.4,16.5,82,45,18,30.27,29.94,7,2,22,0.00
2013-4-26,67.8,51.2,34.7,39.9,34.0,28.3,84,55,27,30.40,30.25,5,1,10,0.00
2013-4-27,71.3,56.2,41.2,46.4,41.1,37.7,88,60,34,30.34,30.18,4,1,10,0.00
2013-4-28,55.3,53.3,51.3,52.7,47.5,44.8,93,81,69,30.18,30.05,6,1,10,0.15
2013-4-29,70.1,57.1,50.4,55.5,51.4,47.4,95,82,55,30.07,29.90,2,0,6,0.02
2013-4-30,66.1,58.0,52.9,55.5,53.1,51.6,97,84,65,30.20,29.98,4,0,6,0.02
2013-5-1,72.8,60.5,51.7,53.0,46.1,32.1,95,65,23,30.31,30.19,3,1,9,0.02
2013-5-2,72.3,58.3,45.1,51.4,42.7,37.6,85,58,35,30.33,30.21,4,1,9,0.00
2013-5-3,65.5,52.9,39.8,49.7,43.3,38.2,97,72,49,30.31,30.18,4,1,7,0.00
2013-5-4,64.7,51.0,36.9,48.2,41.9,35.6,96,73,50,30.24,30.09,4,1,11,0.00
2013-5-5,55.0,44.5,36.2,45.4,38.7,34.1,94,81,57,30.14,30.06,3,0,10,0.00
2013-5-6,57.5,53.2,48.0,56.5,50.8,44.8,98,92,72,30.06,29.90,4,1,9,0.40
2013-5-7,63.4,56.3,51.1,60.7,55.1,48.7,98,96,76,29.90,29.81,6,1,12,0.42
2013-5-8,62.0,53.6,47.6,57.1,52.1,46.8,99,95,79,29.94,29.87,1,0,5,0.05
2013-5-9,79.4,59.9,42.6,58.8,49.5,40.6,99,75,26,29.97,29.89,6,1,11,0.03
2013-5-10,81.6,64.8,49.5,62.1,54.5,48.1,96,74,37,29.98,29.81,7,2,14,0.00
2013-5-11,77.7,67.0,60.4,59.5,56.6,50.4,95,71,41,29.83,29.65,8,3,16,0.01
2013-5-12,62.1,55.7,40.6,52.0,34.4,23.5,77,47,25,30.00,29.70,9,4,15,0.01
2013-5-13,57.3,45.9,35.5,36.5,29.9,21.4,87,58,26,30.14,30.00,7,2,13,0.00
2013-5-14,67.8,48.5,31.0,44.0,35.0,29.5,95,65,29,30.19,29.94,5,1,12,0.19
2013-5-15,91.6,69.7,46.0,62.1,48.7,42.0,92,54,20,29.94,29.67,9,2,16,0.01
2013-5-16,82.6,72.2,62.4,67.1,55.7,47.6,87,57,39,29.89,29.74,5,1,10,0.00
2013-5-17,80.5,67.9,54.2,63.3,57.6,52.0,96,72,40,30.04,29.88,5,1,11,0.00
2013-5-18,70.9,64.4,61.6,64.2,60.6,58.5,95,88,73,30.11,30.01,5,1,10,0.00
2013-5-19,67.6,63.2,60.9,63.6,60.7,58.7,97,92,81,30.10,30.01,3,0,8,0.00
2013-5-20,82.6,69.0,62.6,68.2,63.5,58.3,98,85,55,30.03,29.90,6,1,8,0.01
2013-5-21,87.2,72.1,57.8,69.9,63.8,57.2,99,79,39,29.95,29.80,4,1,10,0.00
2013-5-22,88.2,72.3,60.2,68.6,62.7,56.0,98,76,35,29.86,29.75,9,2,13,0.00
2013-5-23,79.4,69.4,61.3,65.6,62.3,56.7,98,80,51,29.83,29.66,10,2,14,0.00
2013-5-24,61.2,55.7,40.6,60.3,43.6,31.0,98,66,39,30.14,29.71,10,4,19,0.00
2013-5-25,66.3,50.1,33.2,42.7,32.8,20.4,95,59,18,30.23,30.10,9,2,21,0.01
2013-5-26,74.7,56.3,40.1,41.6,36.2,23.3,90,54,15,30.20,30.08,4,1,10,0.00
2013-5-27,68.8,55.2,39.1,53.6,44.2,36.3,91,69,43,30.25,30.11,1,0,5,0.00
2013-5-28,84.9,66.3,50.4,62.2,55.4,49.1,97,72,39,30.13,29.99,6,2,14,0.00
2013-5-29,87.4,74.7,59.2,62.5,59.8,56.2,95,63,35,30.07,30.00,6,2,10,0.00
2013-5-30,89.7,75.9,59.5,67.4,60.7,53.0,96,63,30,30.13,30.04,4,1,10,0.00
2013-5-31,87.2,72.6,56.2,65.5,59.8,55.4,98,69,37,30.10,29.97,6,2,12,0.00
2013-6-1,85.1,84.0,82.2,66.6,64.0,62.3,55,51,49,29.95,29.92,4,3,7,0.00
2013-6-2,81.4,74.3,69.4,69.2,63.2,59.4,83,69,53,29.86,29.76,8,2,15,0.00
2013-6-3,70.8,67.1,62.1,64.7,62.0,56.7,92,84,67,29.90,29.76,2,0,6,0.00
2013-6-4,78.5,64.9,53.3,57.1,51.4,42.8,97,66,34,30.07,29.90,4,1,10,0.00
2013-6-5,77.7,68.3,57.8,63.2,56.1,47.9,87,67,44,30.09,29.95,5,1,10,0.00
2013-6-6,67.1,62.3,59.3,62.4,58.5,53.9,99,88,71,29.96,29.78,2,0,6,0.22
2013-6-7,69.1,65.4,62.7,67.3,64.5,61.7,99,97,91,29.78,29.57,4,0,9,0.02
2013-6-8,81.8,67.9,56.6,64.1,59.3,55.1,98,77,41,30.02,29.73,4,1,9,0.00
2013-6-9,82.2,69.6,58.9,69.5,64.0,58.1,98,84,63,30.12,29.98,4,1,7,0.00
2013-6-10,81.8,70.0,65.3,72.2,67.5,63.5,99,92,62,30.01,29.73,8,1,13,0.01
2013-6-11,79.9,70.7,62.0,63.7,61.2,57.9,97,74,48,29.84,29.75,7,2,12,0.01
2013-6-12,89.3,76.9,62.6,71.0,64.9,59.3,92,69,45,29.84,29.72,6,2,12,0.00
2013-6-13,78.8,71.9,63.4,70.9,64.5,53.7,95,78,61,29.74,29.48,7,2,14,0.01
2013-6-14,76.5,66.4,57.5,57.2,53.3,50.0,88,64,42,29.96,29.64,5,2,12,0.00
2013-6-15,82.4,67.7,51.6,59.6,55.0,50.5,97,68,35,30.05,29.93,4,1,8,0.00
2013-6-16,80.7,67.0,57.5,68.5,54.7,-99.9,96,73,54,29.98,29.87,5,-41,13,0.00
2013-6-17,84.9,71.2,63.5,71.0,65.5,62.0,97,84,49,29.92,29.82,7,1,13,0.01
2013-6-18,74.4,67.8,60.9,69.4,64.6,60.0,98,90,66,29.88,29.75,5,1,10,0.00
2013-6-19,77.2,66.9,57.0,65.5,61.7,56.4,99,84,62,30.07,29.85,2,0,6,0.00
2013-6-20,77.9,70.5,63.9,66.8,63.7,61.9,97,80,60,30.16,30.06,11,1,11,0.00
2013-6-21,81.8,71.0,57.3,66.4,60.3,54.6,93,71,50,30.21,30.14,4,1,9,0.00
2013-6-22,86.5,71.6,56.6,67.9,61.6,55.8,98,74,40,30.18,30.05,5,1,10,0.00
2013-6-23,87.4,73.9,65.6,69.3,66.0,61.0,97,79,49,30.11,30.01,3,0,8,0.00
2013-6-24,88.0,73.9,63.2,71.6,65.4,61.5,97,77,48,30.09,29.97,6,0,18,0.00
2013-6-25,89.3,76.2,63.5,72.6,67.6,62.9,99,77,46,30.00,29.85,4,1,9,0.00
2013-6-26,86.7,77.1,68.6,75.2,69.2,66.3,95,77,55,29.85,29.77,7,1,11,0.00
2013-6-27,81.2,73.0,65.3,70.9,67.1,64.4,98,83,61,29.79,29.58,7,2,12,0.00
2013-6-29,78.3,77.3,76.7,60.8,58.9,57.7,56,53,51,29.56,29.55,2,1,5,0.00
2013-6-30,73.3,70.6,70.8,66.8,59.9,-99.9,83,78,78,29.76,-32.77,4,-16,6,0.00
2013-7-1,82.2,73.5,67.8,71.8,67.9,64.7,97,84,61,29.88,29.74,4,1,9,0.00
2013-7-2,77.6,72.1,69.8,71.5,69.3,67.6,98,91,75,30.07,29.87,4,0,9,0.00
2013-7-3,79.6,73.0,69.1,72.7,69.6,67.3,98,89,71,30.15,30.06,3,0,9,0.00
2013-7-4,84.7,75.2,66.8,74.9,69.1,66.2,99,83,59,30.17,30.09,5,2,12,0.00
2013-7-5,86.7,76.3,65.5,72.3,68.4,64.9,99,79,53,30.16,30.06,6,2,11,0.00
2013-7-6,87.2,77.4,68.1,71.3,67.6,60.7,97,74,42,30.13,30.01,5,1,11,0.00
2013-7-7,87.4,74.8,68.4,72.1,68.0,65.3,95,81,56,30.06,29.94,8,2,20,0.00
2013-7-8,82.6,73.1,64.3,72.3,65.4,61.8,97,78,52,30.07,30.00,4,1,10,0.00
2013-7-9,81.8,76.1,68.3,72.0,69.0,65.7,94,80,64,30.05,29.95,2,0,6,0.00
2013-7-10,83.2,74.7,69.9,74.3,70.2,68.0,97,86,66,29.97,29.84,5,0,8,0.00
2013-7-11,83.6,74.4,65.6,70.4,68.6,63.8,96,83,58,29.86,29.79,4,0,9,0.00
2013-7-12,71.3,66.4,63.5,65.8,63.5,61.4,97,90,75,30.00,29.85,5,1,9,0.00
2013-7-13,81.8,71.9,64.5,71.1,67.0,63.6,98,86,65,30.18,30.00,3,0,7,0.00
2013-7-14,86.1,75.3,65.3,71.5,68.3,64.7,99,81,54,30.26,30.17,4,1,9,0.00
2013-7-15,91.4,77.8,65.6,73.0,68.5,65.0,99,77,45,30.27,30.15,2,0,6,0.00
2013-7-16,92.3,79.7,68.3,74.5,70.6,67.1,98,76,51,30.21,30.11,3,1,9,0.00
2013-7-17,88.6,79.3,70.6,75.5,72.4,69.7,98,81,58,30.18,30.05,2,0,6,0.00
2013-7-18,93.4,80.0,70.1,74.9,72.0,69.1,98,79,46,30.08,29.96,2,0,7,0.00
2013-7-19,92.7,78.9,70.8,76.5,71.6,66.7,98,80,49,29.96,29.84,6,1,14,0.00
2013-7-20,87.8,77.9,70.6,73.1,69.3,64.5,98,76,49,29.86,29.76,7,1,10,0.00
2013-7-21,88.4,73.9,65.3,71.1,67.8,64.4,98,83,50,29.91,29.83,9,0,12,0.00
2013-7-22,85.9,74.7,67.8,74.3,69.9,67.2,99,86,59,29.87,29.69,5,1,11,0.00
2013-7-23,88.4,76.2,67.6,69.5,66.8,62.0,98,76,43,29.71,29.59,5,1,11,0.00
2013-7-24,83.8,73.1,65.3,69.9,64.8,55.8,97,77,56,29.85,29.63,5,1,10,0.00
2013-7-25,80.1,69.2,61.3,61.5,57.3,53.9,90,67,46,30.00,29.83,4,1,11,0.00
2013-7-26,83.0,68.3,54.4,64.3,58.8,53.6,98,75,43,30.05,29.94,4,1,9,0.00
2013-7-27,74.4,68.6,61.6,70.2,65.0,60.7,98,89,76,29.97,29.86,4,1,9,0.00
2013-7-28,83.2,74.1,66.1,66.4,63.4,58.6,95,72,47,29.91,29.81,5,1,12,0.00
2013-7-29,81.1,72.2,55.7,60.5,54.7,50.1,95,56,38,30.13,30.02,4,1,8,0.00
2013-7-30,81.8,75.3,64.5,63.1,59.7,52.5,91,60,41,30.14,30.07,3,1,10,0.00
2013-7-31,79.6,67.8,62.3,66.8,63.2,60.8,97,86,55,30.09,29.92,5,0,10,0.05
2013-8-1,83.0,71.6,64.5,68.2,65.7,63.0,98,83,55,29.92,29.76,5,0,10,0.01
2013-8-2,83.8,74.4,61.3,64.6,60.2,56.7,97,64,41,29.92,29.82,6,1,10,0.00
2013-8-3,83.4,68.7,61.6,65.6,60.8,58.1,93,78,50,29.92,29.86,4,0,8,0.00
2013-8-4,77.0,72.2,64.5,61.7,56.0,51.5,90,60,41,29.94,29.88,3,2,8,0.00
2013-8-8,83.6,79.1,72.3,73.4,70.1,68.0,96,74,62,29.95,29.90,5,2,10,0.02
2013-8-9,85.5,78.5,72.1,71.2,70.5,69.3,96,78,59,29.90,29.86,7,3,12,0.00
2013-8-10,73.0,71.9,70.6,71.9,70.5,69.1,97,96,93,30.02,29.99,1,0,5,0.54
2013-8-11,82.0,79.8,77.0,73.3,70.7,67.5,81,74,71,29.95,29.92,3,1,6,0.34
2013-8-12,85.3,77.8,67.8,71.0,67.8,64.6,99,74,50,29.98,29.86,2,0,6,0.00
2013-8-17,67.3,64.5,63.4,60.9,59.7,58.3,90,85,73,30.20,30.15,1,0,3,0.00
2013-8-18,64.5,62.8,59.9,62.7,61.2,59.3,98,95,91,30.19,30.11,1,0,7,0.92
2013-8-21,70.9,70.5,69.9,65.9,65.6,65.1,87,84,82,30.05,30.05,3,3,5,0.00
2013-8-22,67.4,67.2,66.9,66.5,66.2,65.7,97,97,96,29.95,29.94,0,0,4,0.05
2013-8-23,66.8,62.6,59.0,65.9,61.7,58.4,98,97,96,30.08,29.99,1,0,2,0.75
2013-8-24,79.2,72.3,58.9,59.9,58.7,57.4,98,64,51,30.27,30.08,1,0,2,0.00
2013-8-25,80.1,71.9,57.8,61.3,57.8,52.8,97,64,42,30.31,30.22,3,1,8,0.01
2013-8-26,84.3,76.5,54.2,63.4,59.9,53.6,98,60,42,30.20,30.00,4,2,8,0.00
2013-8-27,86.3,76.9,68.4,68.8,67.1,64.7,91,74,49,29.95,29.88,5,1,9,0.00
2013-8-28,77.9,75.4,71.3,73.7,71.9,69.7,95,89,82,29.80,29.75,6,1,14,0.60
2013-8-29,83.8,75.1,66.9,71.9,68.5,65.6,99,81,58,29.96,29.87,4,1,8,0.00
2013-8-30,81.1,74.7,62.6,69.0,66.2,62.3,99,76,58,29.99,29.86,6,2,10,0.01
2013-8-31,86.5,79.2,68.8,72.9,68.9,67.3,95,73,57,29.86,29.77,2,1,6,0.00
2013-9-1,86.1,73.4,66.0,72.1,69.6,65.1,98,89,58,29.80,29.73,3,0,6,0.10
2013-9-2,84.0,80.4,73.9,69.8,68.0,65.9,84,66,55,29.77,29.68,3,1,7,0.00
2013-9-3,65.2,63.5,62.4,60.2,59.9,59.4,90,88,82,29.91,29.89,0,0,1,0.01
2013-9-4,66.0,63.4,61.3,60.7,60.0,59.3,93,89,83,30.01,30.00,0,0,0,0.01
2013-9-5,82.2,64.8,61.5,57.3,56.8,56.0,85,76,42,30.06,29.97,3,0,4,0.00
2013-9-6,76.8,63.4,52.6,57.0,53.9,49.9,98,74,43,30.18,30.06,4,0,7,0.00
2013-9-7,82.4,65.6,50.7,62.3,56.4,50.2,99,76,39,30.08,29.88,6,0,8,0.00
2013-9-8,86.7,72.0,58.7,67.9,62.3,57.6,97,75,43,29.94,29.81,2,0,7,0.00
2013-9-9,70.9,67.6,65.5,66.2,63.4,59.1,92,86,77,30.11,29.94,0,0,4,0.00
2013-9-10,89.9,81.6,66.1,71.0,69.0,65.2,98,67,50,30.12,30.03,3,1,8,0.00
2013-9-11,90.5,81.7,70.8,72.3,69.7,65.7,97,69,48,30.10,29.95,4,1,11,0.00
2013-9-12,73.2,67.4,64.5,71.4,66.3,63.6,98,96,93,29.95,29.89,0,0,1,0.00
2013-9-13,75.1,66.9,57.3,60.3,51.8,42.2,97,61,32,29.90,29.68,8,2,12,0.00
2013-9-14,69.6,45.3,46.2,51.0,12.6,-99.9,91,49,44,30.10,29.89,4,-226,8,0.00
2013-9-15,76.8,23.5,69.9,57.4,-50.8,-99.9,57,16,48,30.17,29.99,6,-681,12,0.00
2013-9-21,71.3,50.1,66.9,66.0,20.5,-99.9,97,64,74,29.76,29.61,6,-265,8,0.14
2013-9-22,66.6,58.7,53.3,53.0,50.4,47.0,86,74,58,29.91,29.78,1,0,5,0.00
2013-9-23,68.8,54.6,42.9,50.9,46.8,42.1,98,78,48,30.05,29.90,3,0,6,0.00
2013-9-24,74.6,59.4,50.4,57.7,52.5,48.5,96,80,52,30.06,29.88,3,0,8,0.00
2013-9-25,73.5,60.2,50.4,59.3,53.5,50.1,99,81,50,29.93,29.82,2,0,7,0.00
2013-9-26,76.5,61.8,51.0,57.9,52.0,42.8,98,75,32,30.03,29.84,3,0,8,0.02
2013-9-27,74.7,58.7,44.5,56.3,51.0,43.7,98,78,46,30.15,30.02,2,0,7,0.00
2013-9-28,69.1,58.1,49.8,57.0,52.4,49.0,98,83,53,30.24,30.15,2,0,7,0.00
2013-9-29,72.3,59.9,52.0,54.5,50.9,46.5,97,76,43,30.16,29.99,3,0,8,0.00
2013-9-30,79.0,60.9,45.5,57.2,51.5,44.7,98,75,38,30.05,29.91,2,0,7,0.00
2013-10-1,80.9,64.2,54.1,59.3,55.2,52.2,98,76,37,30.04,29.94,2,0,9,0.00
2013-10-2,84.0,64.9,49.4,61.9,55.4,48.6,98,76,42,30.08,29.96,3,0,6,0.00
2013-10-3,82.4,65.1,53.8,63.3,58.0,53.0,98,80,46,30.09,29.99,3,0,8,0.00
2013-10-4,85.5,67.0,53.2,64.4,59.5,52.7,99,80,42,30.08,29.98,3,0,12,0.01
2013-10-5,87.0,69.3,56.0,66.2,60.4,55.4,99,78,38,30.07,29.94,5,0,8,0.00
2013-10-6,84.3,69.3,56.9,65.4,60.2,56.2,98,76,42,29.98,29.81,6,1,12,0.00
2013-10-7,70.1,65.4,61.3,66.3,60.2,48.0,100,85,48,29.82,29.69,5,1,9,1.43
2013-10-8,66.9,57.7,47.9,46.5,44.5,39.9,91,65,39,30.23,30.15,3,1,8,0.00
2013-10-9,59.2,51.4,44.8,48.8,46.1,43.5,95,83,62,30.27,30.17,5,1,11,0.06
2013-10-10,56.9,52.9,49.2,55.5,51.4,47.9,97,95,92,30.17,29.97,5,2,8,0.14
2013-10-11,62.1,57.5,54.1,56.7,54.3,52.1,95,89,78,29.97,29.91,5,1,10,0.00
2013-10-12,62.3,59.5,57.8,60.9,58.6,56.3,98,97,90,30.07,29.93,4,1,9,0.06
2013-10-13,60.9,58.2,56.5,58.7,57.1,55.9,98,96,90,30.25,30.19,2,0,5,0.28
2013-10-14,64.0,58.1,54.1,58.6,56.4,52.7,99,94,78,30.26,30.16,0,0,4,0.05
2013-10-15,68.3,57.4,51.1,58.0,53.9,50.6,99,89,57,30.19,30.04,1,0,4,0.01
2013-10-16,69.1,58.7,48.0,58.7,53.9,47.5,98,86,61,30.05,29.86,4,1,9,0.00
2013-10-17,69.3,61.7,57.0,61.8,57.9,48.0,98,88,69,29.86,29.70,3,0,9,0.03
2013-10-18,66.3,53.7,41.5,47.7,42.0,36.5,94,67,37,29.98,29.81,6,1,10,0.00
2013-10-19,63.4,51.8,41.3,53.6,46.2,39.4,98,83,58,29.95,29.74,7,1,11,0.00
2013-10-20,62.0,48.1,34.9,39.8,34.3,30.6,90,62,32,30.07,29.84,6,1,12,0.00
2013-10-21,67.1,49.0,33.2,45.8,39.6,32.2,97,74,38,30.12,29.89,5,1,11,0.00
2013-10-22,66.3,52.0,42.6,50.2,44.1,40.9,98,78,44,29.89,29.75,7,2,15,0.00
2013-10-23,55.9,48.7,42.9,38.9,33.7,27.4,64,56,43,29.90,29.61,9,4,13,0.00
2013-10-24,47.4,41.2,30.0,32.4,27.5,22.1,87,59,44,30.14,29.90,7,2,14,0.00
2013-10-25,51.6,36.4,25.0,29.8,23.9,20.1,92,65,30,30.33,30.12,5,1,11,0.00
2013-10-26,55.1,40.0,23.2,32.8,25.1,21.0,94,61,28,30.31,29.92,7,2,14,0.00
2013-10-27,63.1,46.3,33.2,38.8,33.4,29.4,89,64,29,30.10,29.93,5,1,13,0.00
2013-10-28,66.1,45.9,31.5,44.0,37.1,29.7,94,75,39,30.23,30.09,4,0,10,0.00
2013-10-29,66.8,49.7,37.5,47.4,42.3,36.1,97,78,46,30.34,30.20,2,0,7,0.00
2013-10-30,67.1,57.2,49.4,56.7,51.7,45.3,95,82,66,30.25,30.06,6,1,11,0.03
2013-10-31,66.9,54.2,51.1,57.9,52.3,50.2,98,94,69,30.11,29.67,11,1,23,0.00
2013-11-1,74.0,65.3,50.2,60.0,52.4,42.4,90,65,33,29.67,29.51,10,4,23,0.06
2013-11-2,64.3,51.1,39.5,47.0,37.5,30.0,96,65,28,29.88,29.61,9,2,18,0.00
2013-11-3,56.9,43.9,31.5,36.9,29.4,21.9,94,61,27,30.38,29.88,7,1,15,0.00
2013-11-4,46.4,36.0,26.6,28.6,25.1,22.4,88,66,45,30.59,30.37,2,0,5,0.00
2013-11-5,55.7,42.9,29.8,40.8,32.9,26.1,87,69,43,30.59,30.39,3,0,6,0.00
2013-11-6,68.3,55.9,48.0,49.6,45.7,40.6,89,70,49,30.39,30.08,8,2,16,0.00
2013-11-7,61.0,49.0,39.6,53.1,37.5,21.7,99,68,40,30.06,29.84,9,3,15,0.00
2013-11-8,49.4,40.0,28.7,26.6,22.2,18.2,78,51,29,30.29,30.06,10,2,18,0.00
2013-11-9,56.5,40.7,24.2,29.1,24.3,21.1,90,57,27,30.33,30.01,8,2,15,0.00
2013-11-10,62.1,47.4,36.5,34.5,27.7,20.9,72,49,21,30.22,29.92,10,3,14,0.00
2013-11-11,59.8,43.6,29.5,25.4,23.5,20.6,81,49,22,30.25,29.95,5,1,10,0.00
2013-11-12,53.1,40.6,30.6,34.3,22.3,10.2,63,48,36,30.35,29.91,8,3,14,0.00
2013-11-13,39.8,35.2,30.6,17.0,14.9,13.1,51,43,34,30.49,30.43,6,3,14,0.00
2013-11-14,60.7,46.4,29.3,20.5,17.0,14.5,69,34,17,30.23,30.19,5,1,9,0.00
2013-11-15,63.4,44.3,27.2,43.3,22.6,13.1,91,47,15,30.27,30.11,5,1,10,0.08
2013-11-17,61.8,60.9,58.4,58.2,57.4,56.7,94,88,86,29.74,29.67,7,5,16,0.02
2013-11-18,63.1,55.8,46.1,59.2,33.2,19.3,92,46,21,29.92,29.64,10,4,18,0.07
2013-11-19,47.7,40.1,31.2,27.9,24.1,22.8,72,53,41,30.33,29.92,6,2,10,0.00
2013-11-20,46.7,34.3,27.5,25.1,22.3,18.2,80,63,34,30.49,30.33,2,0,6,0.00
2013-11-21,49.2,41.2,29.0,39.4,33.6,22.7,84,75,61,30.52,30.33,3,0,5,0.00
2013-11-22,64.3,56.7,45.1,53.3,48.2,39.0,84,73,64,30.34,29.96,7,2,15,0.00
2013-11-23,56.2,45.2,29.5,47.0,28.7,6.7,79,55,22,30.18,29.97,11,4,20,0.00
2013-11-24,29.4,22.9,14.4,13.3,2.1,-2.7,68,41,27,30.53,30.18,9,4,16,0.00
2013-11-25,38.5,25.8,12.3,11.0,7.0,-1.2,80,49,22,30.54,30.29,6,2,14,0.00
2013-11-26,40.1,35.5,31.5,39.1,29.4,8.1,98,81,33,30.30,29.61,6,1,10,1.18
2013-11-27,37.2,33.6,25.0,36.7,26.8,7.7,100,78,46,30.08,29.54,10,3,19,0.07
2013-11-28,39.8,28.7,18.1,21.1,13.9,9.0,80,56,33,30.41,30.08,8,1,11,0.00
2013-11-29,42.5,28.7,18.9,25.4,20.2,15.9,89,72,45,30.67,30.40,2,0,7,0.00
2013-11-30,39.3,26.6,17.2,23.7,19.3,14.3,89,75,51,30.68,30.32,4,1,9,0.00
2013-12-1,51.7,27.9,19.9,30.3,20.7,16.9,91,78,34,30.32,30.00,4,0,7,0.00
2013-12-4,62.6,53.2,44.8,49.4,46.1,41.8,92,78,60,30.00,29.90,5,1,11,0.00
2013-12-5,62.6,51.1,43.5,60.0,48.7,42.2,99,91,74,30.00,29.86,6,1,10,0.00
2013-12-6,63.7,51.0,38.5,62.2,49.6,37.5,97,95,89,30.10,29.80,8,2,15,1.03
2013-12-7,40.9,35.9,27.3,37.5,31.3,23.9,96,84,67,30.49,30.05,5,1,11,0.07
2013-12-8,32.5,28.6,26.9,31.2,24.9,20.2,95,86,72,30.51,30.23,2,0,7,0.00
2013-12-9,52.2,38.9,32.4,45.3,35.7,28.9,98,89,70,30.33,29.95,5,1,12,0.39
2013-12-10,43.1,34.2,28.4,35.9,26.6,11.0,97,76,44,30.19,29.93,10,2,14,0.23
2013-12-11,42.5,37.4,29.5,19.7,16.7,12.0,65,43,34,30.35,30.15,7,3,14,0.05
2013-12-12,35.3,29.0,21.8,18.0,6.6,-4.6,62,40,18,30.37,30.20,6,2,14,0.00
2013-12-13,43.2,32.3,23.8,21.3,11.2,5.7,66,43,26,30.30,30.18,7,2,11,0.00
2013-12-14,35.3,32.9,31.2,32.9,29.8,20.8,99,89,64,30.25,29.72,1,0,8,0.18
2013-12-15,43.1,35.6,29.5,36.5,30.6,21.4,98,83,52,29.93,29.62,7,2,20,0.06
2013-12-16,41.2,36.1,31.8,28.9,25.5,21.3,86,66,52,30.09,29.90,6,2,13,0.00
2013-12-17,51.6,38.3,26.4,34.6,30.0,24.7,96,74,48,30.04,29.85,9,3,18,0.00
2013-12-18,41.5,35.4,25.6,19.5,17.8,15.9,75,50,36,30.19,30.10,7,3,13,0.00
2013-12-19,62.7,43.8,24.5,28.6,22.1,13.6,78,46,22,30.18,30.04,7,2,13,0.00
2013-12-20,63.7,51.1,33.7,38.3,28.2,22.3,78,44,22,30.08,29.94,7,2,12,0.00
2013-12-21,68.8,61.2,49.8,58.6,47.2,35.7,75,60,49,29.98,29.80,8,4,16,0.00
2013-12-22,68.8,62.8,58.6,61.1,57.3,54.3,95,83,70,29.95,29.75,9,3,19,0.35
2013-12-23,60.4,50.7,32.9,58.7,44.9,25.4,98,81,58,30.18,29.86,7,2,11,0.66
2013-12-24,37.8,28.1,16.5,28.3,16.9,2.2,93,66,34,30.45,30.17,9,2,15,0.01
2013-12-25,34.7,22.2,13.1,14.5,10.7,7.8,84,63,40,30.54,30.32,3,0,8,0.01
2013-12-26,45.1,31.6,18.0,22.8,15.4,10.8,78,53,29,30.34,30.19,10,2,23,0.03
2013-12-27,51.0,32.6,20.5,23.0,17.6,14.8,84,59,24,30.42,30.28,5,1,11,0.00
2013-12-28,56.3,37.9,20.2,29.6,21.5,16.5,86,57,24,30.33,30.07,6,1,13,0.00
2013-12-29,50.5,43.5,39.1,47.7,38.6,24.0,98,84,40,30.07,29.56,7,1,11,1.28
2013-12-30,44.5,38.8,29.8,36.5,29.3,22.8,90,70,46,30.11,29.80,8,1,11,0.00
2013-12-31,41.5,34.5,26.0,25.8,18.5,9.8,84,54,30,30.28,30.06,12,3,30,0.00
2014-1-1,52.9,34.9,24.5,27.6,21.0,15.2,81,59,27,30.36,30.04,5,1,12,0.00
2014-1-2,37.9,31.2,27.0,31.6,27.3,22.2,95,86,67,30.04,29.59,5,0,8,0.11